createdAt,value
2018-10-19T00:01:32.958Z,22.73
2018-10-19T00:04:01.121Z,24.00
2018-10-19T00:06:28.711Z,23.00
2018-10-19T00:08:56.353Z,21.93
2018-10-19T00:11:24.005Z,19.80
2018-10-19T00:13:51.584Z,23.17
2018-10-19T00:16:19.209Z,23.33
2018-10-19T00:18:46.880Z,25.20
2018-10-19T00:21:14.554Z,21.80
2018-10-19T00:23:42.063Z,20.50
2018-10-19T00:26:09.602Z,25.40
2018-10-19T00:28:37.265Z,21.67
2018-10-19T00:31:04.973Z,25.47
2018-10-19T00:33:32.538Z,26.30
2018-10-19T00:36:00.238Z,23.40
2018-10-19T00:38:27.846Z,25.90
2018-10-19T00:40:55.526Z,25.20
2018-10-19T00:43:23.090Z,25.83
2018-10-19T00:45:50.630Z,26.17
2018-10-19T00:48:19.182Z,21.90
2018-10-19T00:50:46.835Z,23.80
2018-10-19T00:53:14.804Z,24.50
2018-10-19T00:55:42.325Z,26.07
2018-10-19T00:58:09.941Z,27.60
2018-10-19T01:00:39.427Z,28.17
2018-10-19T01:03:07.489Z,24.47
2018-10-19T01:05:35.897Z,27.03
2018-10-19T01:08:03.571Z,28.30
2018-10-19T01:10:31.138Z,27.80
2018-10-19T01:12:59.305Z,18.33
2018-10-19T01:15:28.059Z,22.97
2018-10-19T01:17:55.754Z,21.43
2018-10-19T01:20:23.425Z,28.17
2018-10-19T01:22:51.067Z,24.47
2018-10-19T01:25:18.662Z,27.57
2018-10-19T01:27:46.210Z,29.03
2018-10-19T01:30:13.929Z,28.37
2018-10-19T01:32:41.469Z,25.50
2018-10-19T01:35:11.212Z,27.27
2018-10-19T01:37:39.026Z,30.73
2018-10-19T01:40:09.138Z,27.37
2018-10-19T01:42:36.842Z,21.00
2018-10-19T01:45:05.585Z,27.57
2018-10-19T01:47:33.094Z,28.97
2018-10-19T01:50:00.620Z,27.23
2018-10-19T01:52:28.255Z,27.03
2018-10-19T01:54:55.874Z,27.80
2018-10-19T01:57:23.590Z,26.77
2018-10-19T01:59:51.493Z,26.93
2018-10-19T02:02:19.236Z,29.13
2018-10-19T02:04:46.892Z,29.40
2018-10-19T02:07:14.525Z,29.37
2018-10-19T02:09:42.893Z,26.57
2018-10-19T02:12:10.474Z,29.40
2018-10-19T02:14:38.483Z,29.23
2018-10-19T02:17:06.320Z,29.97
2018-10-19T02:19:33.974Z,30.30
2018-10-19T02:22:01.678Z,27.17
2018-10-19T02:24:29.241Z,29.00
2018-10-19T02:26:56.847Z,24.53
2018-10-19T02:29:24.370Z,30.87
2018-10-19T02:31:51.946Z,23.40
2018-10-19T02:34:19.591Z,27.77
2018-10-19T02:36:47.301Z,26.87
2018-10-19T02:39:14.884Z,24.67
2018-10-19T02:41:42.810Z,28.10
2018-10-19T02:44:10.466Z,31.10
2018-10-19T02:46:38.038Z,25.00
2018-10-19T02:49:05.678Z,29.20
2018-10-19T02:51:33.249Z,30.27
2018-10-19T02:54:00.817Z,27.87
2018-10-19T02:56:28.433Z,30.30
2018-10-19T02:58:56.033Z,29.37
2018-10-19T03:01:23.642Z,32.47
2018-10-19T03:03:51.181Z,28.10
2018-10-19T03:06:18.830Z,30.07
2018-10-19T03:08:46.418Z,29.03
2018-10-19T03:11:14.147Z,31.23
2018-10-19T03:13:41.654Z,32.73
2018-10-19T03:16:09.442Z,30.43
2018-10-19T03:18:37.100Z,32.40
2018-10-19T03:21:05.224Z,28.50
2018-10-19T03:23:32.853Z,28.13
2018-10-19T03:26:00.547Z,28.70
2018-10-19T03:28:28.088Z,26.13
2018-10-19T03:30:55.785Z,35.20
2018-10-19T03:33:23.343Z,29.70
2018-10-19T03:35:50.891Z,29.53
2018-10-19T03:38:18.527Z,33.53
2018-10-19T03:40:46.086Z,33.93
2018-10-19T03:43:13.625Z,29.87
2018-10-19T03:45:41.331Z,27.90
2018-10-19T03:48:08.857Z,27.93
2018-10-19T03:50:36.510Z,34.10
2018-10-19T03:53:04.708Z,33.67
2018-10-19T03:55:32.216Z,34.77
2018-10-19T03:57:59.789Z,34.03
2018-10-19T04:00:27.499Z,34.97
2018-10-19T04:02:55.334Z,30.70
2018-10-19T04:05:23.790Z,31.37
2018-10-19T04:07:51.377Z,32.93
2018-10-19T04:10:18.950Z,34.23
2018-10-19T04:12:46.633Z,34.93
2018-10-19T04:15:14.197Z,32.57
2018-10-19T04:17:41.745Z,30.30
2018-10-19T04:20:09.417Z,31.43
2018-10-19T04:22:37.250Z,32.77
2018-10-19T04:25:04.970Z,35.87
2018-10-19T04:27:32.533Z,26.47
2018-10-19T04:30:00.250Z,31.07
2018-10-19T04:32:28.170Z,30.13
2018-10-19T04:34:55.803Z,29.97
2018-10-19T04:37:23.291Z,33.30
2018-10-19T04:39:50.966Z,26.47
2018-10-19T04:42:18.672Z,32.83
2018-10-19T04:44:46.267Z,32.70
2018-10-19T04:47:14.090Z,34.60
2018-10-19T04:49:41.542Z,36.03
2018-10-19T04:52:09.185Z,32.87
2018-10-19T04:54:36.917Z,34.00
2018-10-19T04:57:04.886Z,37.47
2018-10-19T04:59:32.402Z,35.97
2018-10-19T05:01:59.963Z,35.03
2018-10-19T05:04:27.631Z,36.17
2018-10-19T05:06:55.163Z,34.70
2018-10-19T05:09:22.729Z,36.13
2018-10-19T05:11:50.327Z,32.30
2018-10-19T05:14:17.912Z,33.57
2018-10-19T05:16:45.441Z,31.57
2018-10-19T05:19:13.042Z,31.00
2018-10-19T05:21:40.646Z,33.80
2018-10-19T05:24:08.321Z,37.80
2018-10-19T05:26:36.061Z,32.03
2018-10-19T05:29:04.112Z,34.97
2018-10-19T05:31:31.785Z,37.07
2018-10-19T05:33:59.444Z,36.87
2018-10-19T05:36:27.072Z,35.87
2018-10-19T05:38:54.622Z,39.87
2018-10-19T05:41:22.238Z,38.07
2018-10-19T05:43:49.831Z,38.27
2018-10-19T05:46:17.553Z,39.60
2018-10-19T05:48:45.194Z,37.17
2018-10-19T05:51:12.776Z,36.50
2018-10-19T05:53:40.342Z,37.93
2018-10-19T05:56:08.460Z,38.20
2018-10-19T05:58:36.366Z,34.00
2018-10-19T06:01:04.350Z,35.37
2018-10-19T06:03:32.006Z,33.97
2018-10-19T06:05:59.643Z,34.03
2018-10-19T06:08:27.224Z,36.67
2018-10-19T06:10:54.869Z,35.97
2018-10-19T06:13:22.470Z,36.20
2018-10-19T06:15:50.042Z,33.93
2018-10-19T06:18:17.721Z,33.53
2018-10-19T06:20:45.421Z,37.80
2018-10-19T06:23:13.233Z,38.33
2018-10-19T06:25:40.766Z,35.47
2018-10-19T06:28:08.386Z,39.17
2018-10-19T06:30:36.049Z,38.97
2018-10-19T06:33:03.578Z,40.50
2018-10-19T06:35:31.187Z,33.17
2018-10-19T06:37:58.796Z,41.50
2018-10-19T06:40:26.346Z,38.50
2018-10-19T06:42:53.961Z,40.20
2018-10-19T06:45:21.656Z,39.33
2018-10-19T06:47:49.225Z,38.73
2018-10-19T06:50:17.191Z,36.17
2018-10-19T06:52:44.766Z,29.47
2018-10-19T06:55:15.172Z,35.87
2018-10-19T06:57:42.893Z,39.90
2018-10-19T07:00:10.793Z,40.13
2018-10-19T07:02:38.362Z,38.47
2018-10-19T07:05:05.967Z,35.57
2018-10-19T07:07:33.687Z,33.97
2018-10-19T07:10:01.464Z,40.00
2018-10-19T07:12:29.166Z,40.33
2018-10-19T07:14:56.718Z,33.93
2018-10-19T07:17:24.367Z,39.40
2018-10-19T07:19:51.939Z,37.17
2018-10-19T07:22:19.589Z,38.97
2018-10-19T07:24:47.161Z,38.80
2018-10-19T07:27:14.738Z,38.37
2018-10-19T07:29:42.347Z,40.23
2018-10-19T07:32:09.997Z,38.53
2018-10-19T07:34:37.469Z,33.20
2018-10-19T07:37:05.133Z,34.83
2018-10-19T07:39:32.794Z,38.50
2018-10-19T07:42:00.435Z,40.53
2018-10-19T07:44:27.939Z,40.23
2018-10-19T07:46:55.589Z,36.57
2018-10-19T07:49:23.134Z,40.87
2018-10-19T07:51:50.669Z,43.73
2018-10-19T07:54:18.405Z,43.97
2018-10-19T07:56:46.019Z,39.20
2018-10-19T07:59:13.803Z,40.37
2018-10-19T08:01:41.282Z,42.60
2018-10-19T08:04:08.882Z,45.90
2018-10-19T08:06:36.470Z,45.43
2018-10-19T08:09:07.274Z,43.67
2018-10-19T08:11:34.939Z,40.17
2018-10-19T08:14:02.400Z,38.47
2018-10-19T08:16:29.931Z,41.37
2018-10-19T08:18:57.546Z,38.87
2018-10-19T08:21:25.211Z,44.43
2018-10-19T08:23:52.903Z,38.40
2018-10-19T08:26:20.505Z,37.73
2018-10-19T08:28:48.178Z,37.47
2018-10-19T08:31:15.855Z,40.27
2018-10-19T08:33:43.647Z,34.70
2018-10-19T08:36:11.305Z,35.63
2018-10-19T08:38:38.961Z,41.30
2018-10-19T08:41:06.627Z,42.70
2018-10-19T08:43:34.274Z,38.70
2018-10-19T08:46:07.436Z,39.47
2018-10-19T08:48:35.135Z,42.90
2018-10-19T08:51:02.718Z,41.73
2018-10-19T08:53:30.353Z,44.03
2018-10-19T08:55:57.954Z,43.77
2018-10-19T08:58:25.584Z,55.77
2018-10-19T09:00:53.198Z,60.80
2018-10-19T09:03:20.828Z,41.53
2018-10-19T09:05:48.366Z,43.67
2018-10-19T09:08:15.909Z,41.57
2018-10-19T09:10:43.504Z,46.03
2018-10-19T09:13:11.042Z,45.73
2018-10-19T09:15:38.617Z,47.77
2018-10-19T09:18:06.241Z,48.13
2018-10-19T09:20:33.849Z,43.57
2018-10-19T09:23:01.444Z,43.63
2018-10-19T09:25:28.990Z,41.07
2018-10-19T09:27:56.549Z,44.77
2018-10-19T09:30:24.124Z,46.13
2018-10-19T09:32:51.719Z,47.17
2018-10-19T09:35:19.364Z,46.97
2018-10-19T09:37:46.798Z,45.77
2018-10-19T09:40:14.451Z,41.30
2018-10-19T09:42:42.005Z,50.70
2018-10-19T09:45:09.692Z,52.73
2018-10-19T09:47:37.256Z,47.23
2018-10-19T09:50:05.269Z,46.10
2018-10-19T09:52:32.831Z,45.87
2018-10-19T09:55:00.432Z,47.80
2018-10-19T09:57:27.974Z,60.53
2018-10-19T09:59:55.569Z,47.13
2018-10-19T10:02:23.138Z,47.03
2018-10-19T10:04:50.667Z,48.37
2018-10-19T10:07:18.231Z,63.87
2018-10-19T10:09:45.768Z,49.50
2018-10-19T10:12:13.313Z,46.97
2018-10-19T10:14:40.989Z,48.67
2018-10-19T10:17:08.474Z,52.33
2018-10-19T10:19:36.031Z,47.30
2018-10-19T10:22:03.671Z,50.07
2018-10-19T10:24:31.201Z,48.63
2018-10-19T10:26:58.759Z,49.87
2018-10-19T10:29:26.334Z,50.97
2018-10-19T10:31:53.950Z,51.13
2018-10-19T10:34:21.491Z,47.10
2018-10-19T10:36:49.063Z,44.87
2018-10-19T10:39:16.738Z,46.37
2018-10-19T10:41:44.205Z,43.13
2018-10-19T10:44:11.775Z,48.87
2018-10-19T10:46:39.326Z,50.37
2018-10-19T10:49:06.943Z,46.97
2018-10-19T10:51:34.521Z,49.27
2018-10-19T10:54:02.062Z,39.53
2018-10-19T10:56:29.601Z,50.07
2018-10-19T10:58:57.110Z,63.83
2018-10-19T11:01:24.645Z,39.27
2018-10-19T11:03:52.262Z,43.73
2018-10-19T11:06:19.826Z,41.53
2018-10-19T11:08:47.424Z,43.87
2018-10-19T11:11:15.346Z,45.90
2018-10-19T11:13:43.405Z,49.13
2018-10-19T11:16:12.019Z,47.67
2018-10-19T11:18:39.786Z,48.57
2018-10-19T11:21:07.455Z,46.67
2018-10-19T11:23:35.084Z,45.53
2018-10-19T11:26:03.015Z,38.73
2018-10-19T11:28:30.784Z,44.97
2018-10-19T11:30:58.500Z,44.60
2018-10-19T11:33:26.119Z,45.70
2018-10-19T11:35:53.658Z,41.70
2018-10-19T11:38:21.487Z,42.53
2018-10-19T11:40:49.034Z,44.27
2018-10-19T11:43:16.709Z,43.63
2018-10-19T11:45:44.254Z,47.60
2018-10-19T11:48:11.829Z,36.83
2018-10-19T11:50:39.536Z,46.13
2018-10-19T11:53:07.267Z,42.70
2018-10-19T11:55:34.865Z,39.17
2018-10-19T11:58:02.632Z,36.87
2018-10-19T12:00:30.335Z,36.70
2018-10-19T12:02:58.048Z,126.73
2018-10-19T12:05:25.681Z,36.03
2018-10-19T12:07:53.236Z,42.97
2018-10-19T12:10:20.811Z,47.33
2018-10-19T12:12:49.005Z,44.23
2018-10-19T12:15:17.121Z,40.97
2018-10-19T12:17:45.046Z,39.10
2018-10-19T12:20:13.763Z,37.57
2018-10-19T12:22:41.372Z,43.20
2018-10-19T12:25:09.883Z,43.70
2018-10-19T12:27:37.678Z,37.77
2018-10-19T12:30:05.612Z,42.67
2018-10-19T12:32:33.165Z,46.00
2018-10-19T12:35:00.745Z,45.60
2018-10-19T12:37:28.292Z,42.43
2018-10-19T12:39:55.834Z,43.47
2018-10-19T12:42:23.448Z,42.53
2018-10-19T12:44:51.008Z,54.70
2018-10-19T12:47:38.729Z,44.00
2018-10-19T12:50:06.436Z,42.37
2018-10-19T12:52:34.016Z,40.60
2018-10-19T12:55:01.722Z,44.80
2018-10-19T12:57:29.315Z,48.07
2018-10-19T12:59:56.901Z,47.03
2018-10-19T13:02:24.477Z,39.10
2018-10-19T13:04:52.027Z,42.60
2018-10-19T13:07:19.882Z,46.20
2018-10-19T13:09:48.578Z,47.43
2018-10-19T13:12:16.266Z,48.57
2018-10-19T13:14:43.897Z,47.03
2018-10-19T13:17:11.507Z,46.80
2018-10-19T13:19:39.125Z,40.23
2018-10-19T13:22:06.725Z,38.23
2018-10-19T13:24:34.314Z,46.30
2018-10-19T13:27:01.891Z,46.33
2018-10-19T13:29:29.444Z,43.70
2018-10-19T13:31:57.110Z,41.47
2018-10-19T13:34:24.662Z,40.13
2018-10-19T13:36:52.248Z,35.67
2018-10-19T13:39:19.826Z,42.13
2018-10-19T13:41:47.458Z,44.97
2018-10-19T13:44:15.018Z,43.50
2018-10-19T13:46:42.619Z,44.43
2018-10-19T13:49:10.210Z,42.63
2018-10-19T13:51:37.797Z,38.63
2018-10-19T13:54:05.383Z,39.13
2018-10-19T13:56:33.138Z,37.47
2018-10-19T13:59:00.819Z,41.87
2018-10-19T14:01:28.593Z,36.10
2018-10-19T14:03:56.218Z,46.07
2018-10-19T14:06:23.786Z,47.40
2018-10-19T14:08:51.377Z,47.63
2018-10-19T14:11:19.066Z,43.60
2018-10-19T14:13:46.646Z,42.93
2018-10-19T14:16:14.242Z,40.13
2018-10-19T14:18:41.811Z,42.93
2018-10-19T14:21:09.512Z,45.27
2018-10-19T14:23:36.990Z,44.53
2018-10-19T14:26:04.630Z,37.13
2018-10-19T14:28:32.166Z,43.20
2018-10-19T14:30:59.771Z,37.67
2018-10-19T14:33:27.406Z,39.97
2018-10-19T14:35:54.946Z,39.60
2018-10-19T14:38:22.509Z,37.27
2018-10-19T14:40:50.153Z,41.20
2018-10-19T14:43:17.752Z,38.43
2018-10-19T14:45:45.303Z,40.03
2018-10-19T14:48:12.864Z,35.10
2018-10-19T14:50:40.434Z,43.70
2018-10-19T14:53:08.064Z,41.80
2018-10-19T14:55:35.620Z,39.13
2018-10-19T14:58:03.229Z,40.03
2018-10-19T15:00:30.794Z,40.87
2018-10-19T15:02:58.387Z,36.30
2018-10-19T15:05:25.927Z,36.13
2018-10-19T15:07:53.506Z,40.97
2018-10-19T15:10:21.861Z,40.23
2018-10-19T15:12:49.294Z,38.47
2018-10-19T15:15:19.927Z,40.87
2018-10-19T15:17:47.653Z,38.47
2018-10-19T15:20:15.789Z,36.53
2018-10-19T15:22:43.615Z,41.10
2018-10-19T15:25:11.606Z,40.47
2018-10-19T15:27:40.486Z,39.27
2018-10-19T15:30:09.328Z,41.97
2018-10-19T15:32:37.003Z,41.20
2018-10-19T15:35:05.485Z,42.67
2018-10-19T15:37:33.258Z,39.40
2018-10-19T15:40:00.925Z,42.87
2018-10-19T15:42:28.698Z,41.73
2018-10-19T15:44:56.332Z,37.43
2018-10-19T15:47:26.050Z,40.37
2018-10-19T15:49:54.457Z,41.87
2018-10-19T15:52:22.217Z,43.73
2018-10-19T15:54:49.802Z,39.73
2018-10-19T15:57:17.457Z,42.77
2018-10-19T15:59:44.994Z,43.53
2018-10-19T16:02:12.702Z,42.50
2018-10-19T16:04:40.258Z,41.17
2018-10-19T16:07:07.855Z,41.47
2018-10-19T16:09:35.487Z,44.77
2018-10-19T16:12:03.133Z,43.50
2018-10-19T16:14:30.642Z,41.60
2018-10-19T16:16:58.309Z,40.10
2018-10-19T16:19:25.858Z,40.37
2018-10-19T16:21:53.486Z,41.63
2018-10-19T16:27:12.423Z,41.13
2018-10-19T16:29:39.893Z,42.87
2018-10-19T16:32:07.518Z,40.23
2018-10-19T16:34:35.108Z,40.23
2018-10-19T16:37:02.717Z,37.30
2018-10-19T16:39:30.322Z,41.27
2018-10-19T16:41:58.106Z,34.90
2018-10-19T16:44:25.776Z,39.33
2018-10-19T16:46:53.467Z,37.23
2018-10-19T16:49:21.174Z,38.57
2018-10-19T16:51:48.787Z,42.53
2018-10-19T16:54:16.425Z,42.10
2018-10-19T16:56:48.959Z,40.57
2018-10-19T16:59:17.392Z,39.37
2018-10-19T17:01:44.957Z,40.10
2018-10-19T17:04:12.525Z,35.93
2018-10-19T17:06:40.123Z,39.73
2018-10-19T17:09:12.171Z,41.57
2018-10-19T17:11:39.993Z,40.77
2018-10-19T17:14:08.071Z,42.33
2018-10-19T17:16:35.919Z,42.50
2018-10-19T17:19:03.570Z,38.10
2018-10-19T17:21:31.174Z,40.43
2018-10-19T17:23:58.893Z,40.30
2018-10-19T17:26:26.294Z,39.10
2018-10-19T17:28:54.020Z,40.27
2018-10-19T17:31:21.589Z,39.43
2018-10-19T17:33:49.377Z,40.20
2018-10-19T17:36:16.911Z,39.17
2018-10-19T17:38:44.494Z,38.87
2018-10-19T17:41:12.129Z,35.50
2018-10-19T17:43:39.673Z,35.77
2018-10-19T17:46:07.282Z,37.17
2018-10-19T17:48:34.850Z,39.07
2018-10-19T17:51:02.600Z,39.93
2018-10-19T17:53:30.141Z,41.97
2018-10-19T17:55:57.717Z,41.47
2018-10-19T17:58:25.282Z,43.80
2018-10-19T18:00:52.859Z,41.57
2018-10-19T18:03:20.446Z,43.20
2018-10-19T18:05:48.071Z,44.20
2018-10-19T18:08:15.635Z,43.90
2018-10-19T18:10:48.210Z,42.43
2018-10-19T18:13:15.833Z,42.00
2018-10-19T18:15:43.509Z,42.00
2018-10-19T18:18:11.127Z,43.53
2018-10-19T18:20:47.524Z,45.40
2018-10-19T18:23:15.379Z,45.07
2018-10-19T18:25:42.690Z,44.03
2018-10-19T18:28:10.259Z,44.53
2018-10-19T18:30:47.669Z,39.90
2018-10-19T18:33:15.292Z,41.87
2018-10-19T18:35:42.910Z,43.90
2018-10-19T18:38:10.727Z,39.40
2018-10-19T18:40:47.936Z,42.37
2018-10-19T18:43:15.594Z,37.60
2018-10-19T18:45:43.184Z,39.20
2018-10-19T18:48:10.856Z,40.20
2018-10-19T18:50:48.185Z,38.70
2018-10-19T18:56:12.226Z,42.20
2018-10-19T18:58:39.773Z,40.20
2018-10-19T19:01:07.437Z,35.03
2018-10-19T19:03:35.171Z,41.63
2018-10-19T19:06:02.808Z,41.57
2018-10-19T19:08:30.582Z,38.47
2018-10-19T19:10:58.183Z,37.93
2018-10-19T19:13:27.843Z,37.10
2018-10-19T19:15:55.574Z,35.40
2018-10-19T19:18:23.287Z,37.73
2018-10-19T19:20:51.020Z,37.50
2018-10-19T19:23:18.627Z,41.27
2018-10-19T19:25:52.074Z,40.00
2018-10-19T19:28:19.657Z,41.57
2018-10-19T19:30:47.369Z,41.10
2018-10-19T19:33:20.758Z,33.37
2018-10-19T19:35:48.581Z,36.33
2018-10-19T19:38:16.323Z,41.43
2018-10-19T19:40:49.705Z,39.90
2018-10-19T19:43:17.283Z,40.00
2018-10-19T19:45:44.923Z,41.43
2018-10-19T19:48:18.234Z,38.93
2018-10-19T19:50:45.863Z,39.90
2018-10-19T19:53:13.558Z,39.43
2018-10-19T19:55:41.091Z,36.90
2018-10-19T19:58:08.641Z,43.00
2018-10-19T20:00:36.310Z,32.70
2018-10-19T20:03:04.059Z,33.17
2018-10-19T20:05:31.700Z,35.00
2018-10-19T20:07:59.327Z,42.33
2018-10-19T20:10:26.922Z,39.73
2018-10-19T20:12:54.526Z,41.27
2018-10-19T20:15:22.130Z,38.10
2018-10-19T20:17:49.755Z,39.47
2018-10-19T20:20:17.407Z,42.23
2018-10-19T20:22:45.010Z,41.80
2018-10-19T20:25:12.706Z,37.33
2018-10-19T20:27:40.754Z,38.87
2018-10-19T20:30:09.987Z,37.93
2018-10-19T20:32:38.168Z,39.60
2018-10-19T20:35:05.907Z,35.67
2018-10-19T20:40:47.026Z,41.67
2018-10-19T20:55:02.554Z,40.23
2018-10-19T20:57:48.038Z,36.40
2018-10-19T21:12:03.878Z,41.23
2018-10-19T21:31:57.719Z,40.03
2018-10-19T21:34:46.342Z,42.70
2018-10-19T21:51:56.388Z,41.93
2018-10-19T21:54:46.846Z,42.03
2018-10-19T22:14:46.922Z,34.77
2018-10-19T22:17:14.557Z,61.63
2018-10-19T22:19:47.593Z,68.40
2018-10-19T22:30:53.417Z,48.40
2018-10-19T22:42:07.340Z,45.90
2018-10-19T22:47:46.702Z,39.83
2018-10-19T23:02:00.298Z,50.57
2018-10-19T23:04:47.126Z,46.03
2018-10-19T23:21:57.203Z,50.40
2018-10-19T23:24:46.778Z,44.83
2018-10-19T23:39:00.366Z,50.70
2018-10-19T23:41:46.889Z,49.57
2018-10-19T23:47:11.054Z,49.60
2018-10-19T23:49:48.427Z,46.70
2018-10-19T23:54:55.480Z,46.33
2018-10-19T23:57:23.037Z,45.63
2018-10-19T23:59:50.603Z,47.77
